Latest Coastal Weather Observations for Mandora

IDW60701

Issued at 9:02 am WST Sunday 19 April 2015 (issued every 10 minutes, with the page automatically refreshed every 10 minutes)

About coastal observations | Map of coastal stations | Coastal observations for WA | Marine services | Other Formats
Station Details ID: 004019 Name: MANDORA Lat: -19.74 Lon: 120.84 Height: 7.5 m
Data from the previous 72 hours. | See also: Recent months at Mandora
Date/Time
WST
Temp

°C
Wind Pressure Rain
since 9am
mm
Weather Cloud Vis
km
Sea
Height
m
Swell
Dir
 
Speed
knots
Gust
knots
hPa Trend Height
m
Period
s
Dir
19/09:00am 29.3 ESE 10 18 1014.9 - 0.0 - - - - - - -
19/08:30am 28.1 ESE 9 16 1014.9 - 0.0 - - - - - - -
19/08:00am 27.4 ESE 10 18 1014.5 - 0.0 - - - - - - -
19/07:30am 27.2 ESE 10 16 1014.2 - 0.0 - - - - - - -
19/07:00am 27.0 SE 12 19 1013.8 - 0.0 - - - - - - -
19/06:30am 27.0 SE 12 18 1013.3 - 0.0 - - - - - - -
19/06:00am 27.1 SE 10 18 1012.8 - 0.0 - - - - - - -
19/05:30am 27.2 SE 12 19 1012.4 - 0.0 - - - - - - -
19/05:00am 27.2 SE 10 16 1012.0 - 0.0 - - - - - - -
19/04:30am 27.4 SE 11 17 1011.8 - 0.0 - - - - - - -
19/04:00am 27.3 SE 10 17 1011.7 - 0.0 - - - - - - -
19/03:30am 27.2 SSE 11 18 1011.7 - 0.0 - - - - - - -
19/03:00am 27.0 SSE 11 18 1011.8 - 0.0 - - - - - - -
19/02:30am 26.8 SSE 11 19 1012.1 - 0.0 - - - - - - -
19/02:00am 27.0 SSE 12 20 1012.3 - 0.0 - - - - - - -
19/01:30am 27.3 SSE 11 18 1012.7 - 0.0 - - - - - - -
19/01:00am 27.6 SSE 11 17 1013.2 - 0.0 - - - - - - -
19/12:30am 28.3 SSE 11 19 1013.7 - 0.0 - - - - - - -
19/12:00am 28.4 SSE 9 13 1013.8 - 0.0 - - - - - - -
 
Date/Time
WST
Temp

°C
Wind Pressure Rain
since 9am
mm
Weather Cloud Vis
km
Sea
Height
m
Swell
Dir
 
Speed
knots
Gust
knots
hPa Trend Height
m
Period
s
Dir
18/11:30pm 28.8 SSE 9 14 1013.8 - 0.0 - - - - - - -
18/11:00pm 29.1 SE 9 15 1013.9 - 0.0 - - - - - - -
18/10:30pm 29.2 SE 10 16 1014.0 - 0.0 - - - - - - -
18/10:00pm 29.3 SE 10 16 1014.0 - 0.0 - - - - - - -
18/09:30pm 29.5 SSE 11 19 1013.9 - 0.0 - - - - - - -
18/09:00pm 29.5 SSE 9 14 1013.7 - 0.0 - - - - - - -
18/08:30pm 29.5 SSE 8 13 1013.7 - 0.0 - - - - - - -
18/08:00pm 29.6 SSE 8 13 1013.4 - 0.0 - - - - - - -
18/07:30pm 29.9 SSE 10 17 1013.3 - 0.0 - - - - - - -
18/07:00pm 30.3 SE 6 11 1012.9 - 0.0 - - - - - - -
18/06:30pm 30.5 SE 7 12 1012.4 - 0.0 - - - - - - -
18/06:00pm 30.6 SE 6 9 1012.0 - 0.0 - - - - - - -
18/05:30pm 31.1 SE 8 13 1011.7 - 0.0 - - - - - - -
18/05:00pm 31.4 SSE 8 14 1011.4 - 0.0 - - - - - - -
18/04:30pm 31.5 SSE 8 13 1011.2 - 0.0 - - - - - - -
18/04:00pm 31.5 SE 9 16 1010.8 - 0.0 - - - - - - -
18/03:30pm 31.8 SE 8 11 1011.2 - 0.0 - - - - - - -
18/03:00pm 31.9 SE 7 13 1011.2 - 0.0 - - - - - - -
18/02:30pm 32.3 SE 7 12 1011.4 - 0.0 - - - - - - -
18/02:00pm 32.8 ESE 8 12 1011.5 - 0.0 - - - - - - -
18/01:30pm 33.0 SE 10 14 1011.6 - 0.0 - - - - - - -
18/01:00pm 34.2 E 7 12 1012.1 - 0.0 - - - - - - -
18/12:30pm 34.1 ESE 9 15 1012.4 - 0.0 - - - - - - -
18/12:00pm 33.4 ESE 9 15 1012.8 - 0.0 - - - - - - -
18/11:30am 33.3 E 9 16 1013.4 - 0.0 - - - - - - -
18/11:00am 31.3 ESE 10 16 1013.8 - 0.0 - - - - - - -
18/10:30am 30.7 ESE 11 16 1014.2 - 0.0 - - - - - - -
18/10:00am 29.4 SE 11 16 1014.4 - 0.0 - - - - - - -
18/09:30am 29.8 ESE 10 16 1014.7 - 0.0 - - - - - - -
18/09:00am 28.9 ESE 10 16 1014.7 - 0.0 - - - - - - -
18/08:30am 27.7 SE 13 21 1014.6 - 0.0 - - - - - - -
18/08:00am 26.8 SE 9 14 1014.3 - 0.0 - - - - - - -
18/07:30am 25.9 SE 9 13 1014.1 - 0.0 - - - - - - -
18/07:00am 25.2 SE 7 11 1013.7 - 0.0 - - - - - - -
18/06:30am 25.1 SE 7 11 1013.7 - 0.0 - - - - - - -
18/06:00am 25.1 SE 7 10 1013.4 - 0.0 - - - - - - -
18/05:30am 25.6 SE 8 11 1013.2 - 0.0 - - - - - - -
18/05:00am 25.7 SSE 8 13 1012.7 - 0.0 - - - - - - -
18/04:30am 25.7 SSE 8 11 1012.5 - 0.0 - - - - - - -
18/04:00am 25.9 SSE 9 13 1012.4 - 0.0 - - - - - - -
18/03:30am 25.8 SSE 7 11 1012.2 - 0.0 - - - - - - -
18/03:00am 25.7 SSE 7 11 1012.0 - 0.0 - - - - - - -
18/02:30am 25.9 SSE 6 9 1012.2 - 0.0 - - - - - - -
18/02:00am 26.3 SSE 7 11 1012.3 - 0.0 - - - - - - -
18/01:30am 26.5 SE 7 12 1012.4 - 0.0 - - - - - - -
18/01:00am 26.4 SSE 6 10 1012.7 - 0.0 - - - - - - -
18/12:30am 26.1 SSE 5 7 1013.1 - 0.0 - - - - - - -
18/12:00am 25.8 SSE 5 7 1013.2 - 0.0 - - - - - - -
 
Date/Time
WST
Temp

°C
Wind Pressure Rain
since 9am
mm
Weather Cloud Vis
km
Sea
Height
m
Swell
Dir
 
Speed
knots
Gust
knots
hPa Trend Height
m
Period
s
Dir
17/11:30pm 26.0 SSE 5 7 1013.5 - 0.0 - - - - - - -
17/11:00pm 26.1 SE 4 7 1013.7 - 0.0 - - - - - - -
17/10:30pm 26.5 SE 5 8 1013.8 - 0.0 - - - - - - -
17/10:00pm 27.0 SE 6 9 1014.0 - 0.0 - - - - - - -
17/09:30pm 27.5 SE 7 10 1013.9 - 0.0 - - - - - - -
17/09:00pm 27.8 SE 8 11 1013.5 - 0.0 - - - - - - -
17/08:30pm 28.2 SSE 8 12 1013.5 - 0.0 - - - - - - -
17/08:00pm 28.9 SSE 9 15 1013.3 - 0.0 - - - - - - -
17/07:30pm 29.1 SSE 7 13 1013.0 - 0.0 - - - - - - -
17/07:00pm 29.4 SE 6 11 1012.3 - 0.0 - - - - - - -
17/06:30pm 29.8 SE 7 12 1011.9 - 0.0 - - - - - - -
17/06:00pm 30.0 SE 7 11 1011.6 - 0.0 - - - - - - -
17/05:30pm 30.9 SE 9 16 1011.5 - 0.0 - - - - - - -
17/05:00pm 31.4 SE 9 14 1011.3 - 0.0 - - - - - - -
17/04:30pm 32.4 SE 11 16 1010.9 - 0.0 - - - - - - -
17/04:00pm 32.8 ESE 10 19 1010.8 - 0.0 - - - - - - -
17/03:30pm 32.4 SE 10 18 1010.7 - 0.0 - - - - - - -
17/03:00pm 32.7 SE 12 18 1010.8 - 0.0 - - - - - - -
17/02:30pm 32.0 SE 10 15 1011.1 - 0.0 - - - - - - -
17/02:00pm 31.8 SE 12 18 1011.5 - 0.0 - - - - - - -
17/01:30pm 32.5 SE 12 19 1011.8 - 0.0 - - - - - - -
17/01:00pm 33.2 SE 12 18 1012.3 - 0.0 - - - - - - -
17/12:30pm 32.7 SE 11 17 1012.7 - 0.0 - - - - - - -
17/12:00pm 31.8 ESE 12 18 1012.9 - 0.0 - - - - - - -
17/11:30am 31.2 SE 13 22 1013.4 - 0.0 - - - - - - -
17/11:00am 30.8 SE 12 19 1014.4 - 0.0 - - - - - - -
17/10:30am 29.4 SE 13 19 1014.7 - 0.0 - - - - - - -
17/10:00am 28.7 SE 12 18 1015.1 - 0.0 - - - - - - -
17/09:30am 28.3 SE 12 18 1015.2 - 0.0 - - - - - - -
17/09:00am 28.1 SE 10 17 1015.1 - 0.0 - - - - - - -
17/08:30am 28.0 SE 11 16 1015.1 - 0.0 - - - - - - -
17/08:00am 27.7 SE 9 18 1014.9 - 0.0 - - - - - - -
17/07:30am 27.2 SSE 9 16 1014.9 - 0.0 - - - - - - -
17/07:00am 27.3 SSE 10 17 1014.7 - 0.0 - - - - - - -
17/06:30am 27.7 SSE 7 14 1014.5 - 0.0 - - - - - - -
17/06:00am 28.1 SSE 9 13 1014.1 - 0.0 - - - - - - -
17/05:30am 28.4 SSE 7 11 1014.0 - 0.0 - - - - - - -
17/05:00am 27.1 ESE 3 4 1013.6 - 0.0 - - - - - - -
17/04:30am 27.7 ESE 4 5 1013.1 - 0.0 - - - - - - -
17/04:00am 28.3 SE 4 5 1013.2 - 0.0 - - - - - - -
17/03:30am 28.5 SSE 6 8 1013.1 - 0.0 - - - - - - -
17/03:00am 28.4 S 6 9 1013.1 - 0.0 - - - - - - -
17/02:30am 28.2 S 6 8 1013.3 - 0.0 - - - - - - -
17/02:00am 28.2 S 7 8 1013.4 - 0.0 - - - - - - -
17/01:30am 28.0 S 6 7 1013.4 - 0.0 - - - - - - -
17/01:00am 27.7 SSE 4 6 1013.4 - 0.0 - - - - - - -
17/12:30am 27.6 SSE 4 6 1013.7 - 0.0 - - - - - - -
17/12:00am 27.8 S 4 6 1014.1 - 0.0 - - - - - - -
 
Date/Time
WST
Temp

°C
Wind Pressure Rain
since 9am
mm
Weather Cloud Vis
km
Sea
Height
m
Swell
Dir
 
Speed
knots
Gust
knots
hPa Trend Height
m
Period
s
Dir
16/11:30pm 27.9 SSE 4 6 1014.4 - 0.0 - - - - - - -
16/11:00pm 28.2 SSE 5 7 1014.6 - 0.0 - - - - - - -
16/10:30pm 28.3 SSE 4 6 1015.0 - 0.0 - - - - - - -
16/10:00pm 28.8 SSE 4 7 1015.2 - 0.0 - - - - - - -
16/09:30pm 29.0 SE 4 6 1015.2 - 0.0 - - - - - - -
16/09:00pm 29.4 SSE 5 8 1015.3 - 0.0 - - - - - - -
16/08:30pm 29.5 ESE 5 7 1015.2 - 0.0 - - - - - - -
16/08:00pm 29.7 ESE 6 9 1015.2 - 0.0 - - - - - - -
16/07:30pm 29.5 S 4 5 1014.6 - 0.0 - - - - - - -
16/07:00pm 29.8 WSW 5 7 1013.8 - 0.0 - - - - - - -
16/06:30pm 30.2 W 5 6 1013.4 - 0.0 - - - - - - -
16/06:00pm 30.5 WNW 5 6 1013.3 - 0.0 - - - - - - -
16/05:30pm 31.4 WSW 5 7 1013.1 - 0.0 - - - - - - -
16/05:00pm 32.0 WSW 6 8 1012.9 - 0.0 - - - - - - -
16/04:30pm 32.6 WNW 7 11 1012.4 - 0.0 - - - - - - -
16/04:00pm 33.4 W 9 13 1012.0 - 0.0 - - - - - - -
16/03:30pm 34.0 WNW 9 14 1011.7 - 0.0 - - - - - - -
16/03:00pm 35.1 NW 10 15 1011.7 - 0.0 - - - - - - -
16/02:30pm 36.3 NW 11 16 1011.9 - 0.0 - - - - - - -
16/02:00pm 36.3 NW 10 14 1012.1 - 0.0 - - - - - - -
16/01:30pm 36.0 NW 11 16 1012.4 - 0.0 - - - - - - -
16/01:00pm 37.1 NW 9 14 1012.6 - 0.0 - - - - - - -
16/12:30pm 36.8 NNW 10 13 1012.8 - 0.0 - - - - - - -
16/12:00pm 37.0 NNW 8 13 1013.0 - 0.0 - - - - - - -
16/11:30am 37.0 NNW 6 12 1013.5 - 0.0 - - - - - - -
16/11:00am 37.0 SW 4 8 1013.9 - 0.0 - - - - - - -
16/10:30am 36.8 S 5 9 1014.3 - 0.0 - - - - - - -
16/10:00am 36.1 S 7 10 1014.6 - 0.0 - - - - - - -
16/09:30am 34.3 S 5 7 1015.0 - 0.0 - - - - - - -

Other Formats:

Comma delimited format used in spreadsheet applications
http://www.bom.gov.au/fwo/IDW60701/IDW60701.94200.axf

JavaScript Object Notation format (JSON) in row-major order
http://www.bom.gov.au/fwo/IDW60701/IDW60701.94200.json